ADDS METAR Data INFO
IDs: Format: Raw Decoded Include TAF

Data at: 0929 UTC 11 Dec 2017

PAFE 110856Z AUTO 12014G21KT 10SM -RA 09/08 A2998 RMK AO2 SLP163 P0006 60028 T00890078 401000039 50014 $
PAFE 110756Z AUTO 12014G19KT 9SM RA 09/08 A2998 RMK AO2 SLP164 P0013 T00940078
PAFE 110556Z AUTO 11009KT 7SM RA 09/08 A2994 RMK AO2 SLP150 P0016 60054 T00940083 10094 20078 55005 $
PAFE 110456Z AUTO 10009KT 7SM RA 09/08 A2993 RMK AO2 SLP147 P0012 T00940078
PAFE 110356Z AUTO 11006KT 6SM -RA BR 09/08 A2993 RMK AO2 SLP149 P0011 T00890078
PAFE 110256Z AUTO 11004KT 6SM RA BR 08/07 A2995 RMK AO2 SLP155 P0011 60015 T00830072 55034
PAFE 110156Z AUTO 10009G14KT 8SM -RA 08/06 A2995 RMK AO2 SLP153 P0004 T00830061 $
PAFE 110056Z AUTO 10011KT 10SM -RA 08/06 A3000 RMK AO2 SLP171 P0000 T00830056 $
PAFE 102356Z AUTO 09007KT 10SM -RA 08/06 A3005 RMK AO2 SLP189 P0002 60002 T00830056 10089 20056 58053 $
PAFE 102256Z AUTO 09005KT 10SM -RA 09/05 A3010 RMK AO2 RAE02B47 SLP206 P0000 T00890050 $
PAFE 102156Z AUTO 09008KT 10SM -RA 08/04 A3016 RMK AO2 RAB41 SLP227 P0000 T00830044 $
PAFE 101956Z AUTO 10007KT 10SM 08/04 A3021 RMK AO2 SLP244 T00780044 $
PAFE 101856Z AUTO 12005KT 10SM 08/04 A3023 RMK AO2 SLP250 T00780044
PAFE 101656Z AUTO 10003KT 10SM 04/03 A3026 RMK AO2 SLP258 T00390033 $
PAFE 101556Z AUTO 00000KT 10SM 05/04 A3026 RMK AO2 SLP262 T00500039 $
PAFE 101456Z AUTO 08006KT 10SM 06/04 A3026 RMK AO2 SLP261 T00610044 50003 $
PAFE 101356Z AUTO 08007KT 10SM 07/05 A3028 RMK AO2 SLP265 T00670050 $
PAFE 101156Z AUTO 11009KT 10SM 07/06 A3026 RMK AO2 SLP258 70017 T00720056 10078 20067 51027
PAFE 101056Z AUTO 13009KT 10SM 07/06 A3024 RMK AO2 SLP253 T00720056 $
PAFE 100856Z AUTO 12010KT 10SM 08/06 A3018 RMK AO2 SLP231 T00780061 400830067 51040 $
PAFE 100756Z AUTO 11008KT 10SM 08/06 A3014 RMK AO2 SLP220 T00780061 $
PAFE 100556Z AUTO 10006KT 10SM 08/07 A3006 RMK AO2 SLP191 60001 T00780067 10083 20072 51043 $
PAFE 100456Z AUTO 12008KT 10SM 08/07 A3002 RMK AO2 SLP177 T00780067
PAFE 100256Z AUTO 11011G17KT 10SM 08/07 A2993 RMK AO2 RAE38 SLP148 P0000 60001 T00780067 52026 $
PAFE 100156Z AUTO 11009G15KT 10SM -RA 08/07 A2991 RMK AO2 SLP140 P0000 T00780067 $
PAFE 100056Z AUTO 11009G14KT 10SM -RA 08/07 A2988 RMK AO2 SLP130 P0001 T00780067 $
PAFE 092356Z AUTO 10009G18KT 10SM -RA 08/07 A2985 RMK AO2 SLP121 P0002 60008 T00780067 10083 20078 55004 $
PAFE 092256Z AUTO 10011G19KT 9SM -RA 08/07 A2985 RMK AO2 RAB02 SLP119 P0001 T00830067 $
PAFE 092156Z AUTO 11012G18KT 10SM 08/07 A2985 RMK AO2 RAE54 SLP119 P0000 T00830067